This is the latest recevied weather packets stored in our database for station/object NR0A-4. If no packets are shown the sender has not sent any weather packets the latest 1 day(s).
| Time | Temp. | Humidity | Pressure | Rain* | Wind** | Luminosity | Snow |
|---|---|---|---|---|---|---|---|
| 1778023204 | 12.78° C | 35% | 1012.4 hPa | 0 mm | 3.13 m/s, 284° | 0 W/m² | - |
| 1778022904 | 12.78° C | 35% | 1012.4 hPa | 0 mm | 3.13 m/s, 273° | 0 W/m² | - |
| 1778022605 | 12.78° C | 35% | 1012.4 hPa | 0 mm | 2.24 m/s, 292° | 0 W/m² | - |
| 1778022304 | 12.78° C | 35% | 1012.4 hPa | 0 mm | 2.24 m/s, 282° | 0 W/m² | - |
| 1778022004 | 12.78° C | 35% | 1012.4 hPa | 0 mm | 2.68 m/s, 280° | 0 W/m² | - |
| 1778021704 | 12.78° C | 35% | 1012.4 hPa | 0 mm | 2.68 m/s, 278° | 0 W/m² | - |
| 1778021404 | 12.78° C | 35% | 1012.4 hPa | 0 mm | 3.13 m/s, 282° | 0 W/m² | - |
| 1778021104 | 12.78° C | 35% | 1012.4 hPa | 0 mm | 2.68 m/s, 285° | 0 W/m² | - |
| 1778020804 | 12.78° C | 35% | 1012.4 hPa | 0 mm | 2.68 m/s, 281° | 0 W/m² | - |
| 1778020504 | 12.78° C | 35% | 1012.4 hPa | 0 mm | 2.68 m/s, 289° | 0 W/m² | - |
| 1778020216 | 12.78° C | 35% | 1012.4 hPa | 0 mm | 1.79 m/s, 321° | 0 W/m² | - |
| 1778019904 | 12.78° C | 35% | 1012.4 hPa | 0 mm | 3.58 m/s, 277° | 0 W/m² | - |
| 1778019604 | 12.78° C | 35% | 1012.4 hPa | 0 mm | 2.24 m/s, 285° | 0 W/m² | - |
| 1778019304 | 12.78° C | 35% | 1012.4 hPa | 0 mm | 2.68 m/s, 288° | 0 W/m² | - |
| 1778019005 | 12.78° C | 35% | 1012.4 hPa | 0 mm | 0.89 m/s, 271° | 0 W/m² | - |
| 1778018704 | 12.78° C | 34% | 1012.3 hPa | 0 mm | 3.58 m/s, 286° | 526 W/m² | - |
| 1778018404 | 12.78° C | 35% | 1012.5 hPa | 0 mm | 3.13 m/s, 271° | 469 W/m² | - |
| 1778018104 | 12.78° C | 34% | 1012.4 hPa | 0 mm | 4.02 m/s, 272° | 415 W/m² | - |
| 1778017804 | 12.78° C | 34% | 1012.5 hPa | 0 mm | 2.68 m/s, 276° | 288 W/m² | - |
| 1778017504 | 12.78° C | 35% | 1012.5 hPa | 0 mm | 2.68 m/s, 283° | 306 W/m² | - |
| 1778017204 | 12.78° C | 35% | 1012.5 hPa | 0 mm | 1.34 m/s, 298° | 267 W/m² | - |
| 1778016905 | 13.33° C | 34% | 1012.6 hPa | 0 mm | 2.68 m/s, 239° | 478 W/m² | - |
| 1778016604 | 12.78° C | 34% | 1012.6 hPa | 0 mm | 3.13 m/s, 275° | 557 W/m² | - |
| 1778016304 | 12.78° C | 34% | 1012.6 hPa | 0 mm | 2.24 m/s, 269° | 338 W/m² | - |
| 1778016004 | 12.78° C | 35% | 1012.7 hPa | 0 mm | 1.79 m/s, 291° | 485 W/m² | - |
* Rain latest hour (hover to see other rain measurements)
** Current wind speed in m/s (hover to see current wind gust speed)